Time;durP1;ratioP1;P1;durP2;ratioP2;P2;SDS_P1;SDS_P2;PMS_P1;PMS_P2;Temp;Humidity;BMP_temperature;BMP_pressure;BME280_temperature;BME280_humidity;BME280_pressure;Samples;Min_cycle;Max_cycle;Signal;HPM_P1;HPM_P2
2023/10/29 00:00:18;;;;;;;7.40;3.57;;;;;;;-144.30;69.59;85366.63;5030994;28;20275;-82
2023/10/29 00:02:45;;;;;;;6.17;3.23;;;;;;;-144.30;69.22;85475.94;5030764;28;20669;-82
2023/10/29 00:05:12;;;;;;;7.53;3.70;;;;;;;-144.30;69.71;85452.09;5030973;28;20638;-83
2023/10/29 00:07:39;;;;;;;7.23;3.53;;;;;;;-144.30;70.30;85384.50;5030776;28;20228;-82
2023/10/29 00:10:07;;;;;;;8.83;4.03;;;;;;;-144.30;70.62;85470.00;5030780;28;20227;-83
2023/10/29 00:12:36;;;;;;;12.40;6.20;;;;;;;-144.30;72.15;85485.88;5031775;28;20642;-82
2023/10/29 00:15:05;;;;;;;10.10;5.97;;;;;;;-144.30;72.99;85473.97;5031252;28;20197;-83
2023/10/29 00:17:32;;;;;;;10.73;7.27;;;;;;;-144.30;73.89;85495.84;5031248;28;20651;-82
2023/10/29 00:19:59;;;;;;;11.50;7.20;;;;;;;-144.30;74.59;85491.84;5031438;28;20198;-84
2023/10/29 00:22:26;;;;;;;12.87;7.40;;;;;;;-144.30;75.04;85495.84;5031501;28;20198;-82
2023/10/29 00:24:53;;;;;;;9.80;7.23;;;;;;;-144.30;75.27;85487.88;5031059;28;20201;-83
2023/10/29 00:27:20;;;;;;;10.30;7.00;;;;;;;-144.30;75.41;85489.88;5030824;28;20611;-82
2023/10/29 00:29:48;;;;;;;13.87;7.93;;;;;;;-144.30;75.52;85507.75;5030632;28;20201;-82
2023/10/29 00:32:18;;;;;;;22.77;11.97;;;;;;;-144.30;76.75;85511.75;5030518;28;20229;-82
2023/10/29 00:34:45;;;;;;;20.97;12.40;;;;;;;-144.30;77.22;85452.09;5030746;28;20251;-82
2023/10/29 00:37:12;;;;;;;18.50;12.27;;;;;;;-144.30;77.36;85561.44;5030643;28;20201;-84
2023/10/29 00:39:40;;;;;;;26.57;13.13;;;;;;;-144.30;77.44;85555.47;5030551;28;20640;-84
2023/10/29 00:42:07;;;;;;;26.17;13.40;;;;;;;-144.30;77.99;85543.53;5030517;28;20216;-83
2023/10/29 00:44:36;;;;;;;23.63;12.90;;;;;;;-144.30;77.84;85571.38;5030196;28;20205;-82
2023/10/29 00:47:05;;;;;;;20.83;13.03;;;;;;;-144.30;78.13;85448.13;5030330;28;20255;-83
2023/10/29 00:49:32;;;;;;;21.10;12.20;;;;;;;-144.30;78.34;85567.41;5030642;28;20204;-83
2023/10/29 00:52:00;;;;;;;19.03;11.00;;;;;;;-144.30;78.47;86036.59;5030508;28;20197;-82
2023/10/29 00:54:27;;;;;;;22.03;11.73;;;;;;;-144.30;78.98;85577.34;5030341;28;20613;-81
2023/10/29 00:56:55;;;;;;;22.10;12.33;;;;;;;-144.30;79.20;85605.19;5030199;28;20519;-82
2023/10/29 00:59:23;;;;;;;19.20;11.27;;;;;;;-144.30;79.08;85611.13;5028408;28;20275;-83
2023/10/29 01:01:50;;;;;;;24.77;12.87;;;;;;;-144.30;79.75;85535.59;5035989;28;20259;-82
2023/10/29 01:04:19;;;;;;;20.00;13.23;;;;;;;-144.30;79.92;85591.25;5030274;28;20193;-82
2023/10/29 01:06:48;;;;;;;26.13;13.90;;;;;;;-144.30;79.88;85603.19;5030232;28;20673;-81
2023/10/29 01:09:16;;;;;;;24.83;13.53;;;;;;;-144.30;79.97;85563.41;5029937;28;20232;-81
2023/10/29 01:11:43;;;;;;;23.67;13.57;;;;;;;-144.30;79.96;85636.97;5030100;28;20686;-82
2023/10/29 01:14:10;;;;;;;26.87;12.67;;;;;;;-144.30;80.16;85589.28;5031429;28;20577;-82
2023/10/29 01:16:36;;;;;;;22.60;14.03;;;;;;;-144.30;80.34;85613.13;5034028;28;20201;-82
2023/10/29 01:19:03;;;;;;;24.00;12.80;;;;;;;-144.30;80.01;85609.16;5034241;28;20203;-83
2023/10/29 01:21:32;;;;;;;27.43;14.67;;;;;;;-144.30;80.18;85505.78;5034329;28;20653;-82
2023/10/29 01:24:00;;;;;;;17.80;11.83;;;;;;;-144.30;80.02;85599.22;5034740;28;20232;-82
2023/10/29 01:26:29;;;;;;;23.20;13.03;;;;;;;-144.30;80.29;85644.94;5035200;28;20759;-83
2023/10/29 01:28:56;;;;;;;18.43;12.10;;;;;;;-144.30;80.28;85597.22;5034765;28;20223;-83
2023/10/29 01:31:23;;;;;;;24.33;12.97;;;;;;;-144.30;80.71;85462.03;5034590;28;20201;-82
2023/10/29 01:33:50;;;;;;;24.10;13.13;;;;;;;-144.30;80.16;85613.13;5034955;28;20743;-83
2023/10/29 01:36:17;;;;;;;24.10;12.70;;;;;;;-144.30;80.55;85605.19;5034412;28;20236;-83
2023/10/29 01:38:45;;;;;;;18.63;11.17;;;;;;;-144.30;80.77;85579.31;5034657;28;20193;-82
2023/10/29 01:41:13;;;;;;;16.87;10.27;;;;;;;-144.30;81.04;85569.38;5033494;28;20201;-83
2023/10/29 01:43:41;;;;;;;15.87;8.70;;;;;;;-144.30;81.54;85680.72;5033694;28;20205;-83
2023/10/29 01:46:10;;;;;;;15.03;8.03;;;;;;;-144.30;82.13;85674.75;5033385;28;20197;-82
2023/10/29 01:48:37;;;;;;;13.87;8.30;;;;;;;-144.30;82.65;85633.00;5033515;28;20217;-82
2023/10/29 01:51:06;;;;;;;13.67;8.47;;;;;;;-144.30;82.33;85579.31;5033940;28;20201;-82
2023/10/29 01:53:33;;;;;;;14.67;8.47;;;;;;;-144.30;82.09;85642.94;5034972;28;20204;-82
2023/10/29 01:56:01;;;;;;;17.30;8.37;;;;;;;-144.30;81.80;85662.81;5034664;28;20205;-82
2023/10/29 01:58:28;;;;;;;16.80;8.50;;;;;;;-144.30;81.36;85623.06;5034230;28;20197;-83
2023/10/29 02:00:55;;;;;;;10.73;8.00;;;;;;;-144.30;81.23;85617.09;5037744;28;20225;-82
2023/10/29 02:03:22;;;;;;;12.90;8.43;;;;;;;-144.30;81.12;85388.47;5033829;28;20197;-84
2023/10/29 02:05:49;;;;;;;13.70;9.17;;;;;;;-144.30;80.97;85621.06;5049093;28;20614;-84
2023/10/29 02:08:20;;;;;;;13.50;7.27;;;;;;;-144.30;81.14;85611.13;5033827;28;20589;-84
2023/10/29 02:10:46;;;;;;;13.93;6.10;;;;;;;-144.30;80.94;85642.94;5033486;28;20661;-83
2023/10/29 02:13:16;;;;;;;9.53;6.20;;;;;;;-144.30;80.66;85593.25;5033529;28;20212;-82
2023/10/29 02:15:43;;;;;;;16.57;5.97;;;;;;;-144.30;80.12;85638.97;5033344;28;20201;-82
2023/10/29 02:18:11;;;;;;;7.27;5.57;;;;;;;-144.30;79.83;85658.84;5033452;28;20201;-82
2023/10/29 02:20:41;;;;;;;10.90;5.73;;;;;;;-144.30;78.96;85414.31;5034247;28;20689;-83
2023/10/29 02:23:11;;;;;;;10.37;5.23;;;;;;;-144.30;78.67;85640.97;5034061;28;20652;-83
2023/10/29 02:25:38;;;;;;;7.93;5.20;;;;;;;-144.30;78.30;85658.84;5033500;28;20267;-82
2023/10/29 02:28:10;;;;;;;9.13;4.63;;;;;;;-144.30;78.73;85682.72;5033360;28;20221;-82
2023/10/29 02:30:37;;;;;;;8.07;4.53;;;;;;;-144.30;78.95;85635.00;5033248;28;20235;-84
2023/10/29 02:33:04;;;;;;;7.10;4.27;;;;;;;-144.30;78.53;85666.81;5033045;28;20201;-83
2023/10/29 02:35:31;;;;;;;7.17;4.30;;;;;;;-144.30;77.63;85625.06;5033422;28;20634;-83
2023/10/29 02:38:00;;;;;;;6.40;3.90;;;;;;;-144.30;77.35;85676.75;5033220;28;20680;-83
2023/10/29 02:40:29;;;;;;;6.27;3.70;;;;;;;-144.30;77.09;85652.88;5032584;28;20201;-83
2023/10/29 02:42:56;;;;;;;10.43;4.80;;;;;;;-144.30;76.78;85650.91;5032845;28;20205;-82
2023/10/29 02:45:22;;;;;;;6.63;3.33;;;;;;;-144.30;76.22;85666.81;5032609;28;20201;-82
2023/10/29 02:47:50;;;;;;;6.17;3.30;;;;;;;-144.30;76.32;85672.75;5032346;28;20207;-82
2023/10/29 02:50:17;;;;;;;7.73;3.20;;;;;;;-144.30;76.00;85664.81;5032434;28;20593;-83
2023/10/29 02:52:46;;;;;;;7.07;3.20;;;;;;;-144.30;75.84;85625.06;5032231;28;20198;-82
2023/10/29 02:55:13;;;;;;;4.43;2.90;;;;;;;-144.30;75.42;85652.88;5032233;28;20202;-83
2023/10/29 02:57:41;;;;;;;8.17;3.30;;;;;;;-144.30;75.20;85658.84;5032153;28;20194;-81
2023/10/29 03:00:09;;;;;;;2.87;2.67;;;;;;;-144.30;74.90;85642.94;5032130;28;20247;-84
2023/10/29 03:02:36;;;;;;;14.20;3.87;;;;;;;-144.30;75.02;85593.25;5032580;28;20209;-83
2023/10/29 03:05:03;;;;;;;7.17;3.03;;;;;;;-144.30;75.28;85650.91;5032410;28;20207;-83
2023/10/29 03:07:31;;;;;;;5.93;3.50;;;;;;;-144.30;74.72;85640.97;5032131;28;20197;-83
2023/10/29 03:09:58;;;;;;;6.10;3.37;;;;;;;-144.30;74.79;85475.94;5032050;28;20307;-83
2023/10/29 03:12:26;;;;;;;4.53;2.87;;;;;;;-144.30;74.99;85650.91;5032051;28;20190;-82
2023/10/29 03:14:54;;;;;;;4.90;3.57;;;;;;;-144.30;74.84;85493.84;5031755;28;20197;-82
2023/10/29 03:17:21;;;;;;;7.47;3.70;;;;;;;-144.30;75.02;86042.56;5031763;28;20213;-81
2023/10/29 03:19:48;;;;;;;6.70;3.80;;;;;;;-144.30;74.78;85615.13;5032958;28;20676;-81
2023/10/29 03:22:15;;;;;;;3.60;3.30;;;;;;;-144.30;74.94;85539.56;5032237;28;20216;-81
2023/10/29 03:24:42;;;;;;;12.23;4.10;;;;;;;-144.30;75.16;85543.53;5031912;28;20194;-82
2023/10/29 03:27:09;;;;;;;6.57;3.30;;;;;;;-144.30;74.73;85656.88;5031806;28;20217;-81
2023/10/29 03:29:36;;;;;;;4.90;2.73;;;;;;;-144.30;75.18;85627.03;5032105;28;20221;-83
2023/10/29 03:32:05;;;;;;;4.53;3.00;;;;;;;-144.30;74.94;85638.97;5031984;28;20197;-82
2023/10/29 03:34:32;;;;;;;4.43;3.27;;;;;;;-144.30;74.76;85635.00;5031891;28;20522;-83
2023/10/29 03:36:59;;;;;;;11.20;3.07;;;;;;;-144.30;74.75;85670.78;5031101;28;20208;-82
2023/10/29 03:39:26;;;;;;;10.47;3.20;;;;;;;-144.30;74.55;85666.81;5031200;28;20197;-83
2023/10/29 03:41:53;;;;;;;4.07;3.10;;;;;;;-144.30;74.89;85595.22;5031509;28;20691;-83
2023/10/29 03:44:20;;;;;;;5.30;3.40;;;;;;;-144.30;74.71;85646.91;5030926;28;20743;-81
2023/10/29 03:46:51;;;;;;;5.47;3.10;;;;;;;-144.30;74.86;85511.75;5033901;28;20638;-82
2023/10/29 03:49:20;;;;;;;7.20;3.33;;;;;;;-144.30;75.08;85462.03;5031143;28;20232;-84
2023/10/29 03:51:48;;;;;;;3.37;3.00;;;;;;;-144.30;74.94;85660.84;5031463;28;20198;-83
2023/10/29 03:54:15;;;;;;;13.07;3.50;;;;;;;-144.30;74.96;85664.81;5030892;28;20274;-83
2023/10/29 03:56:42;;;;;;;7.20;3.13;;;;;;;-144.30;74.77;85454.09;5031308;28;20215;-83
2023/10/29 03:59:09;;;;;;;5.60;3.33;;;;;;;-144.30;74.87;85678.72;5031374;28;20193;-84
2023/10/29 04:01:36;;;;;;;5.93;3.53;;;;;;;-144.30;75.09;85694.63;5031658;28;20197;-85
2023/10/29 04:04:04;;;;;;;5.20;3.37;;;;;;;-144.30;75.59;85656.88;5030704;28;20197;-85
2023/10/29 04:06:32;;;;;;;4.60;3.20;;;;;;;-144.30;75.57;85690.66;5030898;28;20213;-85
2023/10/29 04:08:59;;;;;;;5.87;3.40;;;;;;;-144.30;75.30;85503.78;5030998;28;20235;-83
2023/10/29 04:11:26;;;;;;;6.20;3.43;;;;;;;-144.30;75.71;85654.88;5031098;28;20197;-84
2023/10/29 04:13:53;;;;;;;3.80;3.30;;;;;;;-144.30;75.54;85684.69;5030900;28;20669;-80
2023/10/29 04:16:20;;;;;;;7.87;2.90;;;;;;;-144.30;75.63;85384.50;5030629;28;20586;-80
2023/10/29 04:18:47;;;;;;;9.07;3.33;;;;;;;-144.30;75.81;85688.66;5030766;28;20198;-81
2023/10/29 04:21:14;;;;;;;4.93;3.40;;;;;;;-144.30;75.89;85718.50;5031154;28;20193;-79
2023/10/29 04:23:42;;;;;;;5.80;3.13;;;;;;;-144.30;75.64;86223.50;5031449;28;20669;-80
2023/10/29 04:26:09;;;;;;;5.07;3.40;;;;;;;-144.30;75.83;85710.53;5031609;28;20197;-81
2023/10/29 04:28:36;;;;;;;5.70;2.93;;;;;;;-144.30;75.73;85690.66;5031240;28;20225;-81
2023/10/29 04:31:03;;;;;;;6.40;3.00;;;;;;;-144.30;75.95;85670.78;5031038;28;20213;-78
2023/10/29 04:33:30;;;;;;;7.67;2.93;;;;;;;-144.30;75.61;85702.59;5031224;28;20568;-80
2023/10/29 04:35:57;;;;;;;4.73;3.27;;;;;;;-144.30;76.33;85672.75;5030211;28;20237;-80
2023/10/29 04:38:24;;;;;;;5.43;3.10;;;;;;;-144.30;76.51;85738.38;5030337;28;20247;-80
2023/10/29 04:40:52;;;;;;;6.60;3.17;;;;;;;-144.30;76.98;85746.31;5030113;28;20197;-79
2023/10/29 04:43:19;;;;;;;7.03;3.47;;;;;;;-144.30;77.02;85754.28;5030182;28;20209;-80
2023/10/29 04:45:46;;;;;;;12.93;4.00;;;;;;;-144.30;77.30;85585.28;5030371;28;20587;-80
2023/10/29 04:48:13;;;;;;;6.17;3.73;;;;;;;-144.30;77.34;85726.44;5030096;28;20284;-80
2023/10/29 04:50:39;;;;;;;10.33;3.60;;;;;;;-144.30;77.33;85752.28;5029891;28;20221;-82
2023/10/29 04:53:06;;;;;;;6.23;4.40;;;;;;;-144.30;77.30;85905.38;5030193;28;20205;-84
2023/10/29 04:55:33;;;;;;;5.90;2.97;;;;;;;-144.30;77.70;86456.16;5030330;28;20197;-83
2023/10/29 04:58:01;;;;;;;7.93;3.77;;;;;;;-144.30;77.24;85738.38;5029912;28;20194;-82
2023/10/29 05:00:29;;;;;;;6.47;3.27;;;;;;;-144.30;77.37;85722.47;5030100;28;20212;-82
2023/10/29 05:02:56;;;;;;;8.10;4.03;;;;;;;-144.30;77.26;85734.41;5030110;28;20201;-83
2023/10/29 05:05:24;;;;;;;6.17;3.70;;;;;;;-144.30;77.12;85748.31;5029726;28;20197;-82
2023/10/29 05:07:50;;;;;;;7.10;3.97;;;;;;;-144.30;77.34;85718.50;5029832;28;20209;-79
2023/10/29 05:10:18;;;;;;;7.23;3.63;;;;;;;-144.30;77.89;85625.06;5029970;28;20225;-82
2023/10/29 05:12:45;;;;;;;6.67;3.53;;;;;;;-144.30;78.00;85734.41;5030154;28;20665;-81
2023/10/29 05:15:13;;;;;;;6.17;3.67;;;;;;;-144.30;78.30;85766.22;5029863;28;20596;-83
2023/10/29 05:17:41;;;;;;;8.50;3.67;;;;;;;-144.30;78.38;86263.28;5030142;28;20209;-81
2023/10/29 05:20:10;;;;;;;8.73;4.53;;;;;;;-144.30;78.02;85768.19;5030171;28;20205;-81
2023/10/29 05:22:38;;;;;;;7.37;3.50;;;;;;;-144.30;78.33;85732.41;5029989;28;20213;-81
2023/10/29 05:25:08;;;;;;;9.43;3.73;;;;;;;-144.30;78.06;85708.56;5029580;28;20209;-80
2023/10/29 05:27:35;;;;;;;7.57;3.63;;;;;;;-144.30;77.36;85730.41;5030571;28;20578;-82
2023/10/29 05:30:02;;;;;;;8.17;3.30;;;;;;;-144.30;77.19;85704.56;5030375;28;20225;-82
2023/10/29 05:32:32;;;;;;;9.93;4.07;;;;;;;-144.30;76.72;85698.63;5030624;28;20205;-77
2023/10/29 05:34:58;;;;;;;4.13;3.73;;;;;;;-144.30;75.81;85710.53;5029977;28;20241;-79
2023/10/29 05:37:25;;;;;;;7.63;4.27;;;;;;;-144.30;75.48;85603.19;5029778;28;20211;-78
2023/10/29 05:39:52;;;;;;;7.10;3.57;;;;;;;-144.30;74.49;85613.13;5026135;28;20205;-78
2023/10/29 05:42:19;;;;;;;8.23;4.33;;;;;;;-144.30;74.53;85611.13;5044911;28;20219;-78
2023/10/29 05:44:46;;;;;;;11.40;4.20;;;;;;;-144.30;71.21;85471.97;5049219;28;20205;-80
2023/10/29 05:47:13;;;;;;;9.03;4.70;;;;;;;-144.30;66.87;85285.09;5049355;28;20220;-80
2023/10/29 05:49:41;;;;;;;7.03;3.97;;;;;;;-144.30;61.91;85088.31;5049158;28;20263;-79
2023/10/29 05:52:08;;;;;;;6.25;3.70;;;;;;;-144.30;57.04;84816.00;5049436;28;20215;-80
2023/10/29 05:54:35;;;;;;;10.45;4.72;;;;;;;-144.30;53.55;84573.53;5048635;28;20200;-76
2023/10/29 05:57:02;;;;;;;13.70;4.80;;;;;;;-144.30;50.72;84410.56;5032315;28;20631;-80
2023/10/29 05:59:29;;;;;;;12.02;5.75;;;;;;;-144.30;47.93;84219.78;5028591;28;20635;-78
2023/10/29 06:01:56;;;;;;;10.80;5.32;;;;;;;-144.30;45.62;84084.66;5033512;28;20197;-78
2023/10/29 06:04:23;;;;;;;8.27;5.43;;;;;;;-144.30;45.17;84136.31;5033057;28;20287;-80
2023/10/29 06:06:51;;;;;;;8.90;5.00;;;;;;;-144.30;46.96;84374.78;5033434;28;20287;-79
2023/10/29 06:09:18;;;;;;;7.38;5.00;;;;;;;-144.30;48.83;84531.78;5033244;28;20639;-78
2023/10/29 06:11:45;;;;;;;7.93;4.90;;;;;;;-144.30;51.08;84706.69;5033736;28;20287;-79
2023/10/29 06:14:12;;;;;;;5.97;4.60;;;;;;;-144.30;52.65;84831.91;5033087;28;20201;-80
2023/10/29 06:16:39;;;;;;;11.45;6.05;;;;;;;-144.30;54.66;85020.72;5032905;28;20207;-79
2023/10/29 06:19:06;;;;;;;6.25;5.00;;;;;;;-144.30;56.05;85054.53;5032810;28;20316;-79
2023/10/29 06:21:33;;;;;;;6.07;3.78;;;;;;;-144.30;57.53;85136.03;5032930;28;20201;-81
2023/10/29 06:24:01;;;;;;;4.47;3.40;;;;;;;-144.30;58.13;85153.91;5032762;28;20205;-77
2023/10/29 06:26:28;;;;;;;7.20;3.70;;;;;;;-144.30;58.88;85185.72;5033087;28;20207;-80
2023/10/29 06:28:55;;;;;;;8.38;3.92;;;;;;;-144.30;59.60;85070.44;5032583;28;20227;-83
2023/10/29 06:31:29;;;;;;;6.80;3.92;;;;;;;-144.30;60.83;85213.53;5033368;28;20572;-85
2023/10/29 06:33:55;;;;;;;10.73;3.83;;;;;;;-144.30;61.64;85273.19;5033068;28;20197;-83
2023/10/29 06:36:22;;;;;;;4.13;3.25;;;;;;;-144.30;62.05;85308.97;5032469;28;20236;-80
2023/10/29 06:38:49;;;;;;;6.93;3.60;;;;;;;-144.30;61.79;85251.31;5031550;28;20202;-80
2023/10/29 06:41:17;;;;;;;3.97;3.55;;;;;;;-144.30;61.81;85334.81;5031709;28;20200;-79
2023/10/29 06:43:47;;;;;;;5.47;3.17;;;;;;;-144.30;62.03;85326.84;5031907;28;20212;-79
2023/10/29 06:46:15;;;;;;;9.02;3.88;;;;;;;-144.30;62.75;85320.91;5031266;28;20255;-80
2023/10/29 06:48:42;;;;;;;5.60;3.78;;;;;;;-144.30;63.31;85279.16;5031480;28;20576;-79
2023/10/29 06:51:10;;;;;;;7.68;3.70;;;;;;;-144.30;63.42;85239.38;5031397;28;20217;-80
2023/10/29 06:53:37;;;;;;;4.97;3.78;;;;;;;-144.30;63.29;85277.16;5030947;28;20452;-81
2023/10/29 06:56:05;;;;;;;6.82;4.15;;;;;;;-144.30;63.00;85301.00;5031317;28;20198;-80
2023/10/29 06:58:34;;;;;;;7.80;3.85;;;;;;;-144.30;63.43;85301.00;5031482;28;20276;-82
2023/10/29 07:01:05;;;;;;;6.38;4.38;;;;;;;-144.30;63.20;85312.94;5029535;28;20202;-79
2023/10/29 07:03:33;;;;;;;13.65;4.68;;;;;;;-144.30;62.89;85289.09;5031612;28;20204;-80
2023/10/29 07:06:07;;;;;;;7.50;4.22;;;;;;;-144.30;62.91;85285.09;5028919;28;20207;-80
2023/10/29 07:08:34;;;;;;;7.55;4.85;;;;;;;-144.30;62.68;85287.09;5031552;28;20204;-80
2023/10/29 07:11:02;;;;;;;10.15;4.07;;;;;;;-144.30;62.15;85201.63;5031012;28;20257;-77
2023/10/29 07:13:29;;;;;;;8.88;4.18;;;;;;;-144.30;61.69;85261.25;5029346;28;20213;-81
2023/10/29 07:15:59;;;;;;;10.50;4.60;;;;;;;-144.30;62.12;85243.38;5030987;28;20205;-77
2023/10/29 07:18:26;;;;;;;6.07;3.80;;;;;;;-144.30;61.59;85237.41;5030199;28;20197;-79
2023/10/29 07:20:53;;;;;;;7.93;3.83;;;;;;;-144.30;61.22;85169.81;5032360;28;20581;-82
2023/10/29 07:23:20;;;;;;;9.55;3.97;;;;;;;-144.30;61.16;85193.66;5031824;28;20190;-84
2023/10/29 07:25:48;;;;;;;11.93;5.30;;;;;;;-144.30;61.00;85213.53;5032288;28;20198;-85
2023/10/29 07:28:15;;;;;;;9.93;4.50;;;;;;;-144.30;60.70;85193.66;5032851;28;20205;-82
2023/10/29 07:30:42;;;;;;;10.45;4.05;;;;;;;-144.30;60.14;85195.66;5032350;28;20217;-84
2023/10/29 07:33:10;;;;;;;6.72;3.97;;;;;;;-144.30;59.49;85155.91;5031985;28;20289;-76
2023/10/29 07:35:38;;;;;;;7.30;2.90;;;;;;;-144.30;58.76;85189.69;5031601;28;20233;-79
2023/10/29 07:38:05;;;;;;;9.25;3.85;;;;;;;-144.30;58.57;85151.94;5031545;28;20201;-81
2023/10/29 07:40:33;;;;;;;5.20;3.35;;;;;;;-144.30;59.40;85155.91;5032150;28;20190;-83
2023/10/29 07:43:00;;;;;;;15.00;5.72;;;;;;;-144.30;59.97;85157.88;5032285;28;20585;-81
2023/10/29 07:45:26;;;;;;;6.07;3.42;;;;;;;-144.30;58.61;85151.94;5031324;28;20201;-81
2023/10/29 07:47:53;;;;;;;11.52;4.68;;;;;;;-144.30;58.97;85122.09;5031472;28;20372;-81
2023/10/29 07:50:22;;;;;;;3.97;3.47;;;;;;;-144.30;58.38;85122.09;5031847;28;20239;-81
2023/10/29 07:52:49;;;;;;;6.75;2.85;;;;;;;-144.30;57.65;85120.13;5031959;28;20197;-82
2023/10/29 07:55:15;;;;;;;5.60;3.28;;;;;;;-144.30;57.94;85130.06;5031578;28;20209;-82
2023/10/29 07:57:43;;;;;;;5.78;3.85;;;;;;;-144.30;60.52;85126.09;5030575;28;20198;-81
2023/10/29 08:00:10;;;;;;;5.32;3.08;;;;;;;-144.30;57.97;85140.00;5031580;28;20212;-81
2023/10/29 08:02:37;;;;;;;8.05;3.63;;;;;;;-144.30;58.76;85179.75;5031267;28;20198;-81
2023/10/29 08:05:05;;;;;;;13.63;8.10;;;;;;;-144.30;60.41;85138.00;5031141;28;20613;-82
2023/10/29 08:07:34;;;;;;;22.50;13.18;;;;;;;-144.30;60.21;85094.28;5031526;28;20201;-81
2023/10/29 08:10:01;;;;;;;11.40;6.78;;;;;;;-144.30;58.64;85022.72;5031215;28;20256;-81
2023/10/29 08:12:29;;;;;;;4.90;4.00;;;;;;;-144.30;58.76;85026.69;5031644;28;20193;-81
2023/10/29 08:14:56;;;;;;;12.52;7.05;;;;;;;-144.30;58.97;85060.50;5031622;28;20251;-82
2023/10/29 08:17:23;;;;;;;35.60;23.67;;;;;;;-144.30;58.32;85050.53;5032101;28;20207;-81
2023/10/29 08:19:50;;;;;;;18.85;14.70;;;;;;;-144.30;58.54;85008.81;5031907;28;20200;-81
2023/10/29 08:22:17;;;;;;;20.35;10.65;;;;;;;-144.30;58.11;85042.59;5030931;28;20197;-83
2023/10/29 08:24:45;;;;;;;10.48;6.55;;;;;;;-144.30;58.25;84986.94;5031161;28;20201;-81
2023/10/29 08:27:12;;;;;;;7.97;5.07;;;;;;;-144.30;57.63;84943.22;5030556;28;20288;-81
2023/10/29 08:29:41;;;;;;;9.98;3.90;;;;;;;-144.30;56.92;84988.94;5030810;28;20240;-81
2023/10/29 08:32:08;;;;;;;38.95;25.92;;;;;;;-144.30;57.99;85601.19;5031104;28;20193;-81
2023/10/29 08:34:35;;;;;;;8.45;3.30;;;;;;;-144.30;56.61;85030.66;5030762;28;20204;-81
2023/10/29 08:37:02;;;;;;;21.52;15.05;;;;;;;-144.30;57.43;85022.72;5030513;28;20206;-81
2023/10/29 08:39:30;;;;;;;23.00;15.93;;;;;;;-144.30;58.06;85020.72;5030736;28;20233;-80
2023/10/29 08:42:00;;;;;;;17.77;12.95;;;;;;;-144.30;57.48;84982.97;5031323;28;20199;-81
2023/10/29 08:44:27;;;;;;;13.93;8.57;;;;;;;-144.30;56.80;84891.53;5030884;28;20193;-80
2023/10/29 08:46:54;;;;;;;5.32;3.00;;;;;;;-144.30;55.57;85281.13;5030829;28;20263;-81
2023/10/29 08:49:21;;;;;;;16.75;7.60;;;;;;;-144.30;56.79;84819.97;5031130;28;20221;-80
2023/10/29 08:51:48;;;;;;;8.20;4.25;;;;;;;-144.30;54.85;84927.31;5030717;28;20221;-80
2023/10/29 08:54:15;;;;;;;4.30;3.00;;;;;;;-144.30;54.59;84953.16;5030435;28;20193;-81
2023/10/29 08:56:42;;;;;;;8.00;4.00;;;;;;;-144.30;54.76;84887.56;5031317;28;20201;-81
2023/10/29 08:59:10;;;;;;;5.38;3.50;;;;;;;-144.30;54.41;84933.28;5030389;28;20201;-80
2023/10/29 09:01:37;;;;;;;4.10;3.10;;;;;;;-144.30;54.13;84925.31;5031615;28;20199;-81
2023/10/29 09:04:05;;;;;;;6.63;3.83;;;;;;;-144.30;54.38;84921.34;5030533;28;20228;-82
2023/10/29 09:06:32;;;;;;;5.60;3.10;;;;;;;-144.30;54.89;84923.34;5030127;28;20574;-81
2023/10/29 09:08:59;;;;;;;8.80;3.17;;;;;;;-144.30;53.87;84810.03;5030761;28;20665;-81
2023/10/29 09:11:26;;;;;;;3.53;2.55;;;;;;;-144.30;53.28;84800.09;5030312;28;20264;-81
2023/10/29 09:13:53;;;;;;;3.65;2.50;;;;;;;-144.30;53.27;84951.16;5030524;28;20633;-81
2023/10/29 09:16:21;;;;;;;3.42;2.50;;;;;;;-144.30;52.53;84816.00;5030374;28;20647;-81
2023/10/29 09:18:48;;;;;;;5.95;3.05;;;;;;;-144.30;52.79;84796.13;5029671;28;20204;-81
2023/10/29 09:21:15;;;;;;;4.78;3.22;;;;;;;-144.30;52.79;84891.53;5030224;28;20741;-81
2023/10/29 09:23:43;;;;;;;4.40;3.67;;;;;;;-144.30;53.03;84851.78;5029970;28;20204;-81
2023/10/29 09:26:10;;;;;;;9.80;3.55;;;;;;;-144.30;53.18;84863.72;5030493;28;20259;-81
2023/10/29 09:28:37;;;;;;;3.88;2.60;;;;;;;-144.30;53.12;84794.13;5030816;28;20562;-81
2023/10/29 09:31:04;;;;;;;14.95;4.55;;;;;;;-144.30;52.71;84738.47;5030670;28;20224;-81
2023/10/29 09:33:32;;;;;;;4.90;2.80;;;;;;;-144.30;51.58;84808.06;5030770;28;20186;-81
2023/10/29 09:36:00;;;;;;;2.33;2.13;;;;;;;-144.30;51.52;84792.16;5032418;28;20519;-81
2023/10/29 09:38:27;;;;;;;6.40;3.33;;;;;;;-144.30;51.81;84800.09;5034427;28;20207;-81
2023/10/29 09:40:54;;;;;;;17.98;4.85;;;;;;;-144.30;51.80;84802.09;5034465;28;20240;-81
2023/10/29 09:43:21;;;;;;;6.15;2.70;;;;;;;-144.30;50.87;84804.06;5034345;28;20197;-81
2023/10/29 09:45:49;;;;;;;5.88;2.63;;;;;;;-144.30;50.70;84774.25;5034336;28;20740;-79
2023/10/29 09:48:16;;;;;;;8.57;2.83;;;;;;;-144.30;50.94;84748.44;5034153;28;20193;-80
2023/10/29 09:50:45;;;;;;;9.18;3.22;;;;;;;-144.30;51.57;84758.38;5033371;28;20229;-80
2023/10/29 09:53:13;;;;;;;6.95;2.88;;;;;;;-144.30;50.77;84748.44;5033462;28;20586;-81
2023/10/29 09:55:40;;;;;;;4.13;2.00;;;;;;;-144.30;49.29;84756.38;5033768;28;20259;-81
2023/10/29 09:58:07;;;;;;;6.72;2.28;;;;;;;-144.30;49.37;85056.50;5033113;28;20209;-81
2023/10/29 10:00:36;;;;;;;4.97;1.90;;;;;;;-144.30;49.03;84625.19;5033361;28;20197;-81
2023/10/29 10:03:03;;;;;;;4.63;2.13;;;;;;;-144.30;49.16;84589.41;5033603;28;20213;-81
2023/10/29 10:05:30;;;;;;;4.90;2.22;;;;;;;-144.30;49.42;84746.44;5034625;28;20233;-81
2023/10/29 10:07:59;;;;;;;4.38;2.33;;;;;;;-144.30;50.26;84609.31;5033786;28;20221;-81
2023/10/29 10:10:38;;;;;;;6.13;3.30;;;;;;;-144.30;49.96;84748.44;5033808;28;20320;-81
2023/10/29 10:13:05;;;;;;;6.28;3.17;;;;;;;-144.30;50.08;84688.81;5034241;28;20197;-82
2023/10/29 10:15:32;;;;;;;5.15;2.63;;;;;;;-144.30;49.79;84478.13;5033756;28;20659;-81
2023/10/29 10:18:01;;;;;;;5.05;2.70;;;;;;;-144.30;49.27;84553.66;5034526;28;20189;-82
2023/10/29 10:20:29;;;;;;;3.15;2.28;;;;;;;-144.30;49.23;84625.19;5034086;28;20690;-81
2023/10/29 10:22:57;;;;;;;4.32;2.40;;;;;;;-144.30;48.89;84595.38;5033765;28;20197;-81
2023/10/29 10:25:27;;;;;;;4.07;2.33;;;;;;;-144.30;48.50;84653.03;5033832;28;20719;-78
2023/10/29 10:27:55;;;;;;;5.00;2.30;;;;;;;-144.30;48.49;84655.00;5032565;28;20194;-78
2023/10/29 10:30:29;;;;;;;4.78;2.20;;;;;;;-144.30;48.35;84555.63;5032016;28;20205;-78
2023/10/29 10:33:10;;;;;;;8.05;2.30;;;;;;;-144.30;48.08;84597.38;5032808;28;20579;-81
2023/10/29 10:35:40;;;;;;;4.57;2.20;;;;;;;-144.30;47.86;84521.84;5032264;28;20281;-76
2023/10/29 10:38:08;;;;;;;8.82;3.03;;;;;;;-144.30;48.22;84633.16;5032995;28;20255;-79
2023/10/29 10:40:37;;;;;;;4.88;2.33;;;;;;;-144.30;48.05;84605.31;5032644;28;20209;-78
2023/10/29 10:43:05;;;;;;;4.93;2.42;;;;;;;-144.30;48.22;84617.25;5032456;28;20193;-79
2023/10/29 10:45:33;;;;;;;5.72;3.28;;;;;;;-144.30;48.06;84621.22;5033153;28;20197;-74
2023/10/29 10:48:03;;;;;;;3.70;2.30;;;;;;;-144.30;47.96;84633.16;5030965;28;20240;-73
2023/10/29 10:50:31;;;;;;;5.93;2.45;;;;;;;-144.30;48.34;84633.16;5032124;28;20202;-74
2023/10/29 10:52:59;;;;;;;5.20;2.67;;;;;;;-144.30;49.44;84613.28;5032030;28;20197;-74
2023/10/29 10:55:26;;;;;;;5.18;2.97;;;;;;;-144.30;50.96;84601.34;5031254;28;20208;-75
2023/10/29 10:57:56;;;;;;;5.63;2.13;;;;;;;-144.30;48.35;84523.84;5032248;28;20208;-75
2023/10/29 11:00:23;;;;;;;4.35;2.10;;;;;;;-144.30;47.76;84603.34;5031483;28;20204;-77
2023/10/29 11:02:51;;;;;;;3.67;2.10;;;;;;;-144.30;47.60;84581.47;5031322;28;20201;-76
2023/10/29 11:05:18;;;;;;;3.33;2.17;;;;;;;-144.30;47.28;85058.50;5031379;28;20630;-76
2023/10/29 11:07:45;;;;;;;6.05;2.15;;;;;;;-144.30;47.38;84480.13;5031071;28;20194;-82
2023/10/29 11:10:17;;;;;;;3.53;2.15;;;;;;;-144.30;47.33;84416.50;5031596;28;20592;-80
2023/10/29 11:12:46;;;;;;;3.58;2.03;;;;;;;-144.30;47.31;84589.41;5028650;28;20700;-78
2023/10/29 11:15:16;;;;;;;6.75;2.10;;;;;;;-144.30;47.26;84498.00;5031075;28;20661;-78